sensor_id;sensor_type;location;lat;lon;timestamp;pressure;altitude;pressure_sealevel;temperature;humidity
41947;BME280;27638;42.184;24.848;2023-05-01T00:00:23;99795.41;;;14.45;88.92
41947;BME280;27638;42.184;24.848;2023-05-01T00:02:49;99792.00;;;14.65;90.41
41947;BME280;27638;42.184;24.848;2023-05-01T00:05:14;99785.84;;;14.65;90.48
41947;BME280;27638;42.184;24.848;2023-05-01T00:07:40;99780.91;;;14.83;89.25
41947;BME280;27638;42.184;24.848;2023-05-01T00:10:05;99780.53;;;14.86;89.97
41947;BME280;27638;42.184;24.848;2023-05-01T00:12:31;99771.63;;;14.79;90.37
41947;BME280;27638;42.184;24.848;2023-05-01T00:14:56;99764.50;;;14.65;91.68
41947;BME280;27638;42.184;24.848;2023-05-01T00:17:22;99768.66;;;14.53;92.25
41947;BME280;27638;42.184;24.848;2023-05-01T00:19:52;99765.78;;;14.54;92.17
41947;BME280;27638;42.184;24.848;2023-05-01T00:22:17;99764.13;;;14.68;91.90
41947;BME280;27638;42.184;24.848;2023-05-01T00:24:42;99764.91;;;14.83;90.32
41947;BME280;27638;42.184;24.848;2023-05-01T00:27:08;99764.41;;;14.94;88.88
41947;BME280;27638;42.184;24.848;2023-05-01T00:29:33;99762.06;;;15.06;88.12
41947;BME280;27638;42.184;24.848;2023-05-01T00:31:59;99762.38;;;15.18;87.71
41947;BME280;27638;42.184;24.848;2023-05-01T00:34:24;99769.44;;;15.25;86.89
41947;BME280;27638;42.184;24.848;2023-05-01T00:36:50;99767.84;;;15.10;86.08
41947;BME280;27638;42.184;24.848;2023-05-01T00:39:15;99769.38;;;15.19;84.69
41947;BME280;27638;42.184;24.848;2023-05-01T00:41:41;99767.16;;;15.22;84.19
41947;BME280;27638;42.184;24.848;2023-05-01T00:44:06;99774.00;;;15.31;84.17
41947;BME280;27638;42.184;24.848;2023-05-01T00:46:33;99759.88;;;15.38;83.69
41947;BME280;27638;42.184;24.848;2023-05-01T00:48:58;99773.22;;;15.38;83.67
41947;BME280;27638;42.184;24.848;2023-05-01T00:51:25;99775.97;;;15.44;83.64
41947;BME280;27638;42.184;24.848;2023-05-01T00:53:52;99770.03;;;15.49;82.48
41947;BME280;27638;42.184;24.848;2023-05-01T00:56:18;99770.44;;;15.46;81.72
41947;BME280;27638;42.184;24.848;2023-05-01T00:58:45;99769.22;;;15.48;82.40
41947;BME280;27638;42.184;24.848;2023-05-01T01:01:13;99772.91;;;15.47;82.41
41947;BME280;27638;42.184;24.848;2023-05-01T01:03:40;99769.66;;;15.52;83.80
41947;BME280;27638;42.184;24.848;2023-05-01T01:14:32;99789.88;;;14.97;82.64
41947;BME280;27638;42.184;24.848;2023-05-01T01:17:03;99793.72;;;14.73;83.66
41947;BME280;27638;42.184;24.848;2023-05-01T01:22:20;99797.94;;;14.23;87.01
41947;BME280;27638;42.184;24.848;2023-05-01T01:28:12;99802.63;;;14.06;88.07
41947;BME280;27638;42.184;24.848;2023-05-01T01:36:24;99811.22;;;13.79;88.00
41947;BME280;27638;42.184;24.848;2023-05-01T01:41:48;99820.91;;;13.57;90.29
41947;BME280;27638;42.184;24.848;2023-05-01T01:44:19;99816.53;;;13.64;89.70
41947;BME280;27638;42.184;24.848;2023-05-01T01:46:47;99815.09;;;13.77;89.23
41947;BME280;27638;42.184;24.848;2023-05-01T01:49:19;99813.00;;;13.87;88.15
41947;BME280;27638;42.184;24.848;2023-05-01T01:51:46;99804.38;;;13.99;87.78
41947;BME280;27638;42.184;24.848;2023-05-01T01:54:14;99814.56;;;13.96;87.39
41947;BME280;27638;42.184;24.848;2023-05-01T01:56:41;99806.31;;;14.05;86.98
41947;BME280;27638;42.184;24.848;2023-05-01T01:59:07;99794.47;;;14.08;86.65
41947;BME280;27638;42.184;24.848;2023-05-01T02:01:34;99800.06;;;14.13;86.07
41947;BME280;27638;42.184;24.848;2023-05-01T02:04:00;99800.63;;;14.23;85.14
41947;BME280;27638;42.184;24.848;2023-05-01T02:06:27;99807.88;;;14.29;84.97
41947;BME280;27638;42.184;24.848;2023-05-01T02:08:56;99818.25;;;14.24;84.75
41947;BME280;27638;42.184;24.848;2023-05-01T02:11:23;99798.22;;;14.28;84.05
41947;BME280;27638;42.184;24.848;2023-05-01T02:13:50;99797.50;;;14.20;83.85
41947;BME280;27638;42.184;24.848;2023-05-01T02:16:17;99807.69;;;14.31;83.23
41947;BME280;27638;42.184;24.848;2023-05-01T02:18:45;99810.25;;;14.39;82.77
41947;BME280;27638;42.184;24.848;2023-05-01T02:21:10;99819.72;;;14.42;82.37
41947;BME280;27638;42.184;24.848;2023-05-01T02:23:38;99802.81;;;14.34;82.45
41947;BME280;27638;42.184;24.848;2023-05-01T02:26:04;99805.13;;;14.23;82.88
41947;BME280;27638;42.184;24.848;2023-05-01T02:28:32;99798.50;;;14.19;83.03
41947;BME280;27638;42.184;24.848;2023-05-01T02:30:58;99803.47;;;14.22;82.56
41947;BME280;27638;42.184;24.848;2023-05-01T02:33:24;99805.03;;;14.16;83.18
41947;BME280;27638;42.184;24.848;2023-05-01T02:35:50;99798.13;;;14.22;83.20
41947;BME280;27638;42.184;24.848;2023-05-01T02:38:16;99808.41;;;14.25;83.09
41947;BME280;27638;42.184;24.848;2023-05-01T02:40:49;99815.03;;;14.14;81.36
41947;BME280;27638;42.184;24.848;2023-05-01T02:43:19;99822.72;;;13.94;83.38
41947;BME280;27638;42.184;24.848;2023-05-01T02:45:46;99824.19;;;13.97;83.73
41947;BME280;27638;42.184;24.848;2023-05-01T02:48:15;99820.63;;;14.04;84.02
41947;BME280;27638;42.184;24.848;2023-05-01T02:50:43;99832.84;;;13.99;83.75
41947;BME280;27638;42.184;24.848;2023-05-01T02:53:10;99832.72;;;13.78;85.37
41947;BME280;27638;42.184;24.848;2023-05-01T02:55:36;99818.31;;;13.87;85.63
41947;BME280;27638;42.184;24.848;2023-05-01T02:58:02;99829.09;;;13.70;85.82
41947;BME280;27638;42.184;24.848;2023-05-01T03:00:27;99836.13;;;13.86;86.18
41947;BME280;27638;42.184;24.848;2023-05-01T03:02:53;99850.28;;;14.01;85.79
41947;BME280;27638;42.184;24.848;2023-05-01T03:05:18;99859.56;;;14.05;84.95
41947;BME280;27638;42.184;24.848;2023-05-01T03:07:44;99854.97;;;14.14;84.54
41947;BME280;27638;42.184;24.848;2023-05-01T03:10:10;99856.25;;;14.18;84.08
41947;BME280;27638;42.184;24.848;2023-05-01T03:12:36;99849.66;;;14.14;84.06
41947;BME280;27638;42.184;24.848;2023-05-01T03:15:01;99843.88;;;14.11;83.61
41947;BME280;27638;42.184;24.848;2023-05-01T03:17:27;99853.13;;;14.00;84.28
41947;BME280;27638;42.184;24.848;2023-05-01T03:19:53;99851.88;;;13.73;85.66
41947;BME280;27638;42.184;24.848;2023-05-01T03:22:19;99847.69;;;13.56;86.74
41947;BME280;27638;42.184;24.848;2023-05-01T03:24:44;99842.88;;;13.51;87.52
41947;BME280;27638;42.184;24.848;2023-05-01T03:27:11;99842.72;;;13.53;87.90
41947;BME280;27638;42.184;24.848;2023-05-01T03:29:37;99838.63;;;13.42;87.94
41947;BME280;27638;42.184;24.848;2023-05-01T03:32:03;99845.97;;;13.40;89.14
41947;BME280;27638;42.184;24.848;2023-05-01T03:34:29;99843.84;;;13.58;88.52
41947;BME280;27638;42.184;24.848;2023-05-01T03:36:55;99854.00;;;13.78;87.22
41947;BME280;27638;42.184;24.848;2023-05-01T03:39:20;99860.72;;;13.88;86.22
41947;BME280;27638;42.184;24.848;2023-05-01T03:41:46;99852.19;;;13.93;85.62
41947;BME280;27638;42.184;24.848;2023-05-01T03:44:11;99857.63;;;13.99;85.70
41947;BME280;27638;42.184;24.848;2023-05-01T03:46:37;99866.06;;;14.03;85.05
41947;BME280;27638;42.184;24.848;2023-05-01T03:49:02;99865.97;;;13.96;84.85
41947;BME280;27638;42.184;24.848;2023-05-01T03:51:28;99876.19;;;14.07;84.76
41947;BME280;27638;42.184;24.848;2023-05-01T03:53:54;99884.59;;;13.96;85.40
41947;BME280;27638;42.184;24.848;2023-05-01T03:56:23;99879.28;;;13.96;85.86
41947;BME280;27638;42.184;24.848;2023-05-01T03:58:51;99876.91;;;14.01;85.34
41947;BME280;27638;42.184;24.848;2023-05-01T04:01:16;99883.72;;;14.19;85.33
41947;BME280;27638;42.184;24.848;2023-05-01T04:03:42;99889.31;;;14.24;84.42
41947;BME280;27638;42.184;24.848;2023-05-01T04:06:08;99890.25;;;14.31;84.39
41947;BME280;27638;42.184;24.848;2023-05-01T04:08:34;99898.81;;;14.41;83.84
41947;BME280;27638;42.184;24.848;2023-05-01T04:10:59;99901.31;;;14.43;84.21
41947;BME280;27638;42.184;24.848;2023-05-01T04:13:25;99899.06;;;14.31;84.81
41947;BME280;27638;42.184;24.848;2023-05-01T04:15:50;99905.50;;;14.37;85.11
41947;BME280;27638;42.184;24.848;2023-05-01T04:18:16;99904.44;;;14.46;84.83
41947;BME280;27638;42.184;24.848;2023-05-01T04:20:41;99912.06;;;14.49;84.81
41947;BME280;27638;42.184;24.848;2023-05-01T04:23:07;99907.56;;;14.50;85.01
41947;BME280;27638;42.184;24.848;2023-05-01T04:25:35;99911.88;;;14.51;85.16
41947;BME280;27638;42.184;24.848;2023-05-01T04:28:00;99912.06;;;14.49;85.59
41947;BME280;27638;42.184;24.848;2023-05-01T04:30:25;99913.44;;;14.45;86.20
41947;BME280;27638;42.184;24.848;2023-05-01T04:32:51;99924.50;;;14.57;86.60
41947;BME280;27638;42.184;24.848;2023-05-01T04:35:16;99918.06;;;14.66;86.08
41947;BME280;27638;42.184;24.848;2023-05-01T04:37:42;99911.19;;;14.72;85.12
41947;BME280;27638;42.184;24.848;2023-05-01T04:40:07;99917.69;;;14.69;85.24
41947;BME280;27638;42.184;24.848;2023-05-01T04:42:33;99919.72;;;14.67;85.33
41947;BME280;27638;42.184;24.848;2023-05-01T04:44:58;99924.78;;;14.77;85.99
41947;BME280;27638;42.184;24.848;2023-05-01T04:47:28;99925.41;;;14.93;84.13
41947;BME280;27638;42.184;24.848;2023-05-01T04:49:54;99923.81;;;15.14;84.30
41947;BME280;27638;42.184;24.848;2023-05-01T04:52:19;99925.13;;;15.39;82.87
41947;BME280;27638;42.184;24.848;2023-05-01T04:54:45;99923.88;;;15.71;81.56
41947;BME280;27638;42.184;24.848;2023-05-01T04:57:10;99926.53;;;15.92;79.20
41947;BME280;27638;42.184;24.848;2023-05-01T04:59:35;99925.25;;;16.10;78.24
41947;BME280;27638;42.184;24.848;2023-05-01T05:02:01;99920.34;;;16.13;78.16
41947;BME280;27638;42.184;24.848;2023-05-01T05:04:26;99934.63;;;16.27;78.18
41947;BME280;27638;42.184;24.848;2023-05-01T05:06:52;99924.84;;;16.41;77.02
41947;BME280;27638;42.184;24.848;2023-05-01T05:09:17;99925.91;;;16.46;76.37
41947;BME280;27638;42.184;24.848;2023-05-01T05:11:43;99926.44;;;16.63;76.51
41947;BME280;27638;42.184;24.848;2023-05-01T05:14:09;99928.59;;;16.68;75.34
41947;BME280;27638;42.184;24.848;2023-05-01T05:16:35;99934.19;;;16.79;74.69
41947;BME280;27638;42.184;24.848;2023-05-01T05:19:00;99942.91;;;16.95;74.24
41947;BME280;27638;42.184;24.848;2023-05-01T05:21:26;99942.41;;;17.19;73.01
41947;BME280;27638;42.184;24.848;2023-05-01T05:23:51;99944.72;;;17.35;70.89
41947;BME280;27638;42.184;24.848;2023-05-01T05:26:16;99935.66;;;17.36;71.58
41947;BME280;27638;42.184;24.848;2023-05-01T05:28:42;99940.66;;;17.52;71.41
41947;BME280;27638;42.184;24.848;2023-05-01T05:31:08;99946.13;;;17.72;71.31
41947;BME280;27638;42.184;24.848;2023-05-01T05:33:33;99940.78;;;17.85;69.74
41947;BME280;27638;42.184;24.848;2023-05-01T05:35:59;99940.78;;;17.92;68.94
41947;BME280;27638;42.184;24.848;2023-05-01T05:38:24;99936.25;;;17.86;69.60
41947;BME280;27638;42.184;24.848;2023-05-01T05:40:50;99951.09;;;18.08;69.80
41947;BME280;27638;42.184;24.848;2023-05-01T05:43:15;99951.94;;;18.22;68.25
41947;BME280;27638;42.184;24.848;2023-05-01T05:45:41;99954.81;;;18.01;68.31
41947;BME280;27638;42.184;24.848;2023-05-01T05:48:06;99961.41;;;18.25;68.79
41947;BME280;27638;42.184;24.848;2023-05-01T05:50:31;99959.53;;;18.45;68.21
41947;BME280;27638;42.184;24.848;2023-05-01T05:52:57;99973.38;;;18.68;65.95
41947;BME280;27638;42.184;24.848;2023-05-01T05:55:22;99965.09;;;18.90;64.50
41947;BME280;27638;42.184;24.848;2023-05-01T05:57:48;99961.78;;;18.88;63.19
41947;BME280;27638;42.184;24.848;2023-05-01T06:00:14;99957.03;;;18.90;63.84
41947;BME280;27638;42.184;24.848;2023-05-01T06:02:39;99963.63;;;19.00;63.50
41947;BME280;27638;42.184;24.848;2023-05-01T06:05:05;99966.97;;;18.76;63.74
41947;BME280;27638;42.184;24.848;2023-05-01T06:07:31;99960.56;;;18.70;63.35
41947;BME280;27638;42.184;24.848;2023-05-01T06:09:56;99967.59;;;18.78;62.60
41947;BME280;27638;42.184;24.848;2023-05-01T06:12:28;99974.38;;;18.87;63.55
41947;BME280;27638;42.184;24.848;2023-05-01T06:14:54;99972.50;;;18.94;62.80
41947;BME280;27638;42.184;24.848;2023-05-01T06:17:20;99980.81;;;19.37;62.58
41947;BME280;27638;42.184;24.848;2023-05-01T06:19:45;99982.78;;;19.62;60.54
41947;BME280;27638;42.184;24.848;2023-05-01T06:22:10;99984.84;;;19.66;59.45
41947;BME280;27638;42.184;24.848;2023-05-01T06:24:36;99982.63;;;19.57;59.11
41947;BME280;27638;42.184;24.848;2023-05-01T06:27:04;99985.13;;;19.90;58.71
41947;BME280;27638;42.184;24.848;2023-05-01T06:29:29;99981.22;;;20.17;58.38
41947;BME280;27638;42.184;24.848;2023-05-01T06:31:55;99979.94;;;20.20;57.81
41947;BME280;27638;42.184;24.848;2023-05-01T06:34:20;99980.72;;;20.02;56.45
41947;BME280;27638;42.184;24.848;2023-05-01T06:36:46;99987.91;;;20.39;57.10
41947;BME280;27638;42.184;24.848;2023-05-01T06:39:11;99985.91;;;20.53;56.00
41947;BME280;27638;42.184;24.848;2023-05-01T06:41:37;99992.03;;;20.35;55.18
41947;BME280;27638;42.184;24.848;2023-05-01T06:44:03;99993.09;;;20.59;54.33
41947;BME280;27638;42.184;24.848;2023-05-01T06:46:29;99996.00;;;20.58;54.83
41947;BME280;27638;42.184;24.848;2023-05-01T06:48:54;99994.38;;;21.00;54.42
41947;BME280;27638;42.184;24.848;2023-05-01T06:51:20;99998.63;;;21.08;52.45
41947;BME280;27638;42.184;24.848;2023-05-01T06:53:45;100002.09;;;21.33;53.93
41947;BME280;27638;42.184;24.848;2023-05-01T06:56:11;100011.63;;;21.65;52.94
41947;BME280;27638;42.184;24.848;2023-05-01T06:58:36;100008.38;;;21.75;52.88
41947;BME280;27638;42.184;24.848;2023-05-01T07:01:02;100011.16;;;22.17;50.17
41947;BME280;27638;42.184;24.848;2023-05-01T07:03:28;100007.31;;;21.94;49.62
41947;BME280;27638;42.184;24.848;2023-05-01T07:05:53;100007.44;;;21.99;50.44
41947;BME280;27638;42.184;24.848;2023-05-01T07:08:19;100004.31;;;21.84;49.55
41947;BME280;27638;42.184;24.848;2023-05-01T07:10:45;100007.63;;;21.86;49.42
41947;BME280;27638;42.184;24.848;2023-05-01T07:13:11;100011.97;;;21.87;49.84
41947;BME280;27638;42.184;24.848;2023-05-01T07:15:36;100012.41;;;22.03;49.71
41947;BME280;27638;42.184;24.848;2023-05-01T07:18:02;100011.41;;;22.27;50.79
41947;BME280;27638;42.184;24.848;2023-05-01T07:20:30;100012.63;;;22.66;48.36
41947;BME280;27638;42.184;24.848;2023-05-01T07:22:56;100016.50;;;22.70;48.03
41947;BME280;27638;42.184;24.848;2023-05-01T07:25:21;100016.59;;;22.40;48.45
41947;BME280;27638;42.184;24.848;2023-05-01T07:27:47;100010.75;;;22.55;48.32
41947;BME280;27638;42.184;24.848;2023-05-01T07:30:12;100015.47;;;22.83;48.34
41947;BME280;27638;42.184;24.848;2023-05-01T07:32:38;100012.22;;;22.92;46.78
41947;BME280;27638;42.184;24.848;2023-05-01T07:35:03;100011.81;;;22.77;45.19
41947;BME280;27638;42.184;24.848;2023-05-01T07:37:29;100019.59;;;23.09;45.29
41947;BME280;27638;42.184;24.848;2023-05-01T07:39:55;100018.16;;;22.83;44.12
41947;BME280;27638;42.184;24.848;2023-05-01T07:42:21;100021.81;;;23.12;42.88
41947;BME280;27638;42.184;24.848;2023-05-01T07:44:49;100020.59;;;23.31;42.90
41947;BME280;27638;42.184;24.848;2023-05-01T07:47:14;100015.84;;;23.50;41.78
41947;BME280;27638;42.184;24.848;2023-05-01T07:49:40;100013.47;;;23.65;42.33
41947;BME280;27638;42.184;24.848;2023-05-01T07:52:05;100013.50;;;23.94;41.62
41947;BME280;27638;42.184;24.848;2023-05-01T07:54:32;100009.59;;;24.18;41.39
41947;BME280;27638;42.184;24.848;2023-05-01T07:56:57;100014.34;;;24.11;40.30
41947;BME280;27638;42.184;24.848;2023-05-01T07:59:22;100014.41;;;24.28;40.84
41947;BME280;27638;42.184;24.848;2023-05-01T08:01:48;100022.19;;;24.41;40.94
41947;BME280;27638;42.184;24.848;2023-05-01T08:04:13;100014.81;;;24.36;42.00
41947;BME280;27638;42.184;24.848;2023-05-01T08:06:39;100012.34;;;24.51;40.50
41947;BME280;27638;42.184;24.848;2023-05-01T08:09:04;100011.25;;;24.69;40.31
41947;BME280;27638;42.184;24.848;2023-05-01T08:11:30;100015.94;;;24.74;39.54
41947;BME280;27638;42.184;24.848;2023-05-01T08:13:57;100013.56;;;24.77;38.29
41947;BME280;27638;42.184;24.848;2023-05-01T08:16:23;100017.03;;;24.39;38.30
41947;BME280;27638;42.184;24.848;2023-05-01T08:18:48;100031.94;;;23.97;40.15
41947;BME280;27638;42.184;24.848;2023-05-01T08:21:14;100032.19;;;23.43;41.18
41947;BME280;27638;42.184;24.848;2023-05-01T08:23:39;100028.88;;;23.53;40.91
41947;BME280;27638;42.184;24.848;2023-05-01T08:26:04;100031.78;;;23.75;41.66
41947;BME280;27638;42.184;24.848;2023-05-01T08:28:33;100039.16;;;23.79;43.40
41947;BME280;27638;42.184;24.848;2023-05-01T08:30:58;100033.28;;;23.31;39.61
41947;BME280;27638;42.184;24.848;2023-05-01T08:33:24;100035.91;;;23.14;40.31
41947;BME280;27638;42.184;24.848;2023-05-01T08:35:49;100026.53;;;22.93;40.71
41947;BME280;27638;42.184;24.848;2023-05-01T08:38:15;100031.53;;;23.24;40.02
41947;BME280;27638;42.184;24.848;2023-05-01T08:40:45;100021.34;;;23.15;42.67
41947;BME280;27638;42.184;24.848;2023-05-01T08:43:11;100029.69;;;23.02;40.29
41947;BME280;27638;42.184;24.848;2023-05-01T08:45:37;100024.72;;;22.75;42.43
41947;BME280;27638;42.184;24.848;2023-05-01T08:48:06;100024.41;;;22.95;41.81
41947;BME280;27638;42.184;24.848;2023-05-01T08:50:34;100028.16;;;23.06;43.02
41947;BME280;27638;42.184;24.848;2023-05-01T08:53:04;100026.50;;;22.81;43.21
41947;BME280;27638;42.184;24.848;2023-05-01T08:55:31;100023.16;;;22.44;42.28
41947;BME280;27638;42.184;24.848;2023-05-01T08:57:58;100016.50;;;22.58;41.48
41947;BME280;27638;42.184;24.848;2023-05-01T09:00:24;100023.38;;;22.31;44.49
41947;BME280;27638;42.184;24.848;2023-05-01T09:02:50;100021.03;;;21.93;42.13
41947;BME280;27638;42.184;24.848;2023-05-01T09:05:17;100025.00;;;22.20;41.37
41947;BME280;27638;42.184;24.848;2023-05-01T09:07:44;100016.22;;;21.95;43.24
41947;BME280;27638;42.184;24.848;2023-05-01T09:10:14;100026.16;;;21.64;40.57
41947;BME280;27638;42.184;24.848;2023-05-01T09:12:41;100018.47;;;21.80;40.42
41947;BME280;27638;42.184;24.848;2023-05-01T09:15:10;100026.50;;;21.86;41.48
41947;BME280;27638;42.184;24.848;2023-05-01T09:17:36;100007.25;;;21.83;41.17
41947;BME280;27638;42.184;24.848;2023-05-01T09:20:02;100013.31;;;21.96;44.91
41947;BME280;27638;42.184;24.848;2023-05-01T09:22:32;100015.81;;;22.10;44.79
41947;BME280;27638;42.184;24.848;2023-05-01T09:24:59;100020.44;;;21.91;42.67
41947;BME280;27638;42.184;24.848;2023-05-01T09:27:32;100013.19;;;21.73;40.12
41947;BME280;27638;42.184;24.848;2023-05-01T09:29:58;100014.38;;;21.77;40.94
41947;BME280;27638;42.184;24.848;2023-05-01T09:32:25;100018.59;;;21.55;38.00
41947;BME280;27638;42.184;24.848;2023-05-01T09:34:55;100011.75;;;21.41;38.87
41947;BME280;27638;42.184;24.848;2023-05-01T09:37:33;100021.91;;;21.57;39.99
41947;BME280;27638;42.184;24.848;2023-05-01T09:40:02;100015.31;;;21.53;43.83
41947;BME280;27638;42.184;24.848;2023-05-01T09:42:29;100019.03;;;21.70;44.36
41947;BME280;27638;42.184;24.848;2023-05-01T09:44:55;100017.72;;;21.43;42.53
41947;BME280;27638;42.184;24.848;2023-05-01T09:47:21;100012.63;;;21.53;43.81
41947;BME280;27638;42.184;24.848;2023-05-01T09:49:52;100024.53;;;21.45;44.71
41947;BME280;27638;42.184;24.848;2023-05-01T09:52:18;100018.25;;;21.51;41.91
41947;BME280;27638;42.184;24.848;2023-05-01T09:54:43;100020.13;;;21.51;41.57
41947;BME280;27638;42.184;24.848;2023-05-01T09:57:09;100007.59;;;21.56;39.80
41947;BME280;27638;42.184;24.848;2023-05-01T09:59:35;100006.66;;;21.81;46.92
41947;BME280;27638;42.184;24.848;2023-05-01T10:02:00;100011.22;;;21.80;42.58
41947;BME280;27638;42.184;24.848;2023-05-01T10:04:30;100016.56;;;21.68;42.12
41947;BME280;27638;42.184;24.848;2023-05-01T10:06:56;100021.03;;;21.75;43.29
41947;BME280;27638;42.184;24.848;2023-05-01T10:09:28;100015.78;;;21.50;40.98
41947;BME280;27638;42.184;24.848;2023-05-01T10:11:54;100005.06;;;21.43;40.40
41947;BME280;27638;42.184;24.848;2023-05-01T10:14:22;100014.56;;;21.46;41.08
41947;BME280;27638;42.184;24.848;2023-05-01T10:16:49;100008.28;;;21.52;39.67
41947;BME280;27638;42.184;24.848;2023-05-01T10:19:17;100014.78;;;21.62;40.71
41947;BME280;27638;42.184;24.848;2023-05-01T10:21:42;100017.41;;;21.51;42.44
41947;BME280;27638;42.184;24.848;2023-05-01T10:24:08;100016.81;;;21.49;45.75
41947;BME280;27638;42.184;24.848;2023-05-01T10:26:34;100019.63;;;21.72;43.07
41947;BME280;27638;42.184;24.848;2023-05-01T10:29:01;100018.66;;;21.66;46.45
41947;BME280;27638;42.184;24.848;2023-05-01T10:31:27;100026.25;;;21.58;44.54
41947;BME280;27638;42.184;24.848;2023-05-01T10:33:54;100030.25;;;21.67;43.36
41947;BME280;27638;42.184;24.848;2023-05-01T10:36:26;100022.47;;;21.77;42.81
41947;BME280;27638;42.184;24.848;2023-05-01T10:38:57;100018.06;;;21.64;41.27
41947;BME280;27638;42.184;24.848;2023-05-01T10:44:24;100018.47;;;21.50;39.38
41947;BME280;27638;42.184;24.848;2023-05-01T10:46:50;100031.19;;;21.43;38.48
41947;BME280;27638;42.184;24.848;2023-05-01T10:49:16;100022.25;;;21.60;41.31
41947;BME280;27638;42.184;24.848;2023-05-01T10:51:59;100030.50;;;21.65;40.75
41947;BME280;27638;42.184;24.848;2023-05-01T10:54:29;100024.19;;;21.72;41.03
41947;BME280;27638;42.184;24.848;2023-05-01T10:56:59;100034.59;;;21.68;40.84
41947;BME280;27638;42.184;24.848;2023-05-01T10:59:26;100024.72;;;21.62;41.57
41947;BME280;27638;42.184;24.848;2023-05-01T11:01:52;100019.75;;;21.77;44.55
41947;BME280;27638;42.184;24.848;2023-05-01T11:09:54;100038.38;;;21.49;45.07
41947;BME280;27638;42.184;24.848;2023-05-01T11:15:32;100045.34;;;21.38;44.60
41947;BME280;27638;42.184;24.848;2023-05-01T11:18:01;100060.25;;;21.16;46.55
41947;BME280;27638;42.184;24.848;2023-05-01T11:22:54;100043.44;;;20.77;47.86
41947;BME280;27638;42.184;24.848;2023-05-01T11:25:28;100048.53;;;20.60;48.30
41947;BME280;27638;42.184;24.848;2023-05-01T11:27:59;100054.59;;;20.56;47.43
41947;BME280;27638;42.184;24.848;2023-05-01T11:30:25;100035.19;;;20.72;51.26
41947;BME280;27638;42.184;24.848;2023-05-01T11:32:51;100057.63;;;20.91;47.84
41947;BME280;27638;42.184;24.848;2023-05-01T11:35:22;100054.56;;;21.06;44.50
41947;BME280;27638;42.184;24.848;2023-05-01T11:37:48;100049.34;;;21.11;45.22
41947;BME280;27638;42.184;24.848;2023-05-01T11:40:22;100044.31;;;20.96;45.17
41947;BME280;27638;42.184;24.848;2023-05-01T11:42:49;100052.25;;;21.09;46.61
41947;BME280;27638;42.184;24.848;2023-05-01T11:45:17;100055.03;;;21.02;45.10
41947;BME280;27638;42.184;24.848;2023-05-01T11:47:43;100051.47;;;20.84;46.70
41947;BME280;27638;42.184;24.848;2023-05-01T11:50:09;100046.41;;;20.94;47.21
41947;BME280;27638;42.184;24.848;2023-05-01T11:52:45;100046.50;;;21.06;48.49
41947;BME280;27638;42.184;24.848;2023-05-01T11:55:12;100032.44;;;21.03;47.44
41947;BME280;27638;42.184;24.848;2023-05-01T11:58:04;100047.91;;;21.08;46.64
41947;BME280;27638;42.184;24.848;2023-05-01T12:00:31;100054.72;;;20.92;45.45
41947;BME280;27638;42.184;24.848;2023-05-01T12:03:02;100024.16;;;20.80;46.74
41947;BME280;27638;42.184;24.848;2023-05-01T12:05:30;100020.47;;;20.75;45.26
41947;BME280;27638;42.184;24.848;2023-05-01T12:10:35;100016.97;;;20.49;45.87
41947;BME280;27638;42.184;24.848;2023-05-01T12:13:04;100022.38;;;20.49;47.35
41947;BME280;27638;42.184;24.848;2023-05-01T12:15:31;100019.88;;;20.48;45.84
41947;BME280;27638;42.184;24.848;2023-05-01T12:17:58;100032.41;;;20.60;46.33
41947;BME280;27638;42.184;24.848;2023-05-01T12:20:40;100026.81;;;20.62;44.50
41947;BME280;27638;42.184;24.848;2023-05-01T12:23:07;100024.66;;;20.70;45.29
41947;BME280;27638;42.184;24.848;2023-05-01T12:25:35;100023.97;;;20.82;42.86
41947;BME280;27638;42.184;24.848;2023-05-01T12:28:02;100022.69;;;20.84;42.96
41947;BME280;27638;42.184;24.848;2023-05-01T12:30:31;100020.44;;;20.81;43.53
41947;BME280;27638;42.184;24.848;2023-05-01T12:32:57;100022.31;;;20.81;44.79
41947;BME280;27638;42.184;24.848;2023-05-01T12:35:28;100023.53;;;20.78;44.45
41947;BME280;27638;42.184;24.848;2023-05-01T12:37:55;100023.13;;;20.81;43.20
41947;BME280;27638;42.184;24.848;2023-05-01T12:40:20;100022.63;;;20.91;45.62
41947;BME280;27638;42.184;24.848;2023-05-01T12:42:54;100021.28;;;21.00;46.71
41947;BME280;27638;42.184;24.848;2023-05-01T12:45:21;100019.56;;;21.06;45.27
41947;BME280;27638;42.184;24.848;2023-05-01T12:47:47;100011.94;;;21.02;46.45
41947;BME280;27638;42.184;24.848;2023-05-01T12:50:12;100023.69;;;21.08;48.19
41947;BME280;27638;42.184;24.848;2023-05-01T12:52:38;100014.78;;;21.08;49.10
41947;BME280;27638;42.184;24.848;2023-05-01T12:55:04;100032.44;;;21.03;45.78
41947;BME280;27638;42.184;24.848;2023-05-01T12:57:30;100015.75;;;20.95;47.59
41947;BME280;27638;42.184;24.848;2023-05-01T13:00:03;100019.56;;;20.87;47.33
41947;BME280;27638;42.184;24.848;2023-05-01T13:02:31;100009.06;;;20.79;46.76
41947;BME280;27638;42.184;24.848;2023-05-01T13:05:07;100010.06;;;21.03;49.09
41947;BME280;27638;42.184;24.848;2023-05-01T13:07:34;100011.28;;;21.07;47.32
41947;BME280;27638;42.184;24.848;2023-05-01T13:10:00;100008.97;;;21.11;47.32
41947;BME280;27638;42.184;24.848;2023-05-01T13:12:26;100001.03;;;21.16;45.29
41947;BME280;27638;42.184;24.848;2023-05-01T13:14:52;100012.84;;;21.15;46.82
41947;BME280;27638;42.184;24.848;2023-05-01T13:17:37;100002.28;;;21.13;46.39
41947;BME280;27638;42.184;24.848;2023-05-01T13:20:03;100004.53;;;21.16;44.56
41947;BME280;27638;42.184;24.848;2023-05-01T13:22:34;99998.72;;;21.19;45.38